createdAt,value
2022-10-11T00:00:12.355Z,10.92
2022-10-11T00:03:58.992Z,10.85
2022-10-11T00:07:25.645Z,10.78
2022-10-11T00:11:01.395Z,10.71
2022-10-11T00:14:28.904Z,10.63
2022-10-11T00:17:56.524Z,10.56
2022-10-11T00:21:23.605Z,10.50
2022-10-11T00:24:50.335Z,10.46
2022-10-11T00:28:16.880Z,10.43
2022-10-11T00:31:43.868Z,10.41
2022-10-11T00:35:13.561Z,10.43
2022-10-11T00:38:42.457Z,10.46
2022-10-11T00:42:15.108Z,10.50
2022-10-11T00:46:03.645Z,10.55
2022-10-11T00:49:37.719Z,10.60
2022-10-11T00:53:04.438Z,10.65
2022-10-11T00:56:35.754Z,10.65
2022-10-11T01:00:02.217Z,10.65
2022-10-11T01:04:12.218Z,10.65
2022-10-11T01:07:40.741Z,10.60
2022-10-11T01:11:08.145Z,10.56
2022-10-11T01:15:05.541Z,10.54
2022-10-11T01:18:36.905Z,10.51
2022-10-11T01:22:12.483Z,10.49
2022-10-11T01:25:48.672Z,10.50
2022-10-11T01:29:27.144Z,10.50
2022-10-11T01:33:05.184Z,10.53
2022-10-11T01:36:40.149Z,10.56
2022-10-11T01:40:12.959Z,10.59
2022-10-11T01:43:42.392Z,10.64
2022-10-11T01:47:09.196Z,10.70
2022-10-11T01:50:42.877Z,10.74
2022-10-11T01:54:13.331Z,10.79
2022-10-11T01:57:57.549Z,10.79
2022-10-11T02:01:39.526Z,10.82
2022-10-11T02:05:13.281Z,10.83
2022-10-11T02:08:47.679Z,10.89
2022-10-11T02:12:21.021Z,10.94
2022-10-11T02:15:50.926Z,10.98
2022-10-11T02:19:28.093Z,11.00
2022-10-11T02:23:02.280Z,10.99
2022-10-11T02:26:32.139Z,10.97
2022-10-11T02:30:01.892Z,10.93
2022-10-11T02:33:33.376Z,10.91
2022-10-11T02:37:07.381Z,10.87
2022-10-11T02:40:37.889Z,10.83
2022-10-11T02:44:09.690Z,10.79
2022-10-11T02:47:39.131Z,10.78
2022-10-11T02:51:07.175Z,10.80
2022-10-11T02:54:35.389Z,10.82
2022-10-11T02:58:02.519Z,10.86
2022-10-11T03:01:29.185Z,10.92
2022-10-11T03:04:55.943Z,10.99
2022-10-11T03:08:22.500Z,11.04
2022-10-11T03:11:49.140Z,11.10
2022-10-11T03:15:16.216Z,11.14
2022-10-11T03:18:43.204Z,11.14
2022-10-11T03:22:09.906Z,11.15
2022-10-11T03:25:36.447Z,11.17
2022-10-11T03:29:02.907Z,11.19
2022-10-11T03:32:30.679Z,11.20
2022-10-11T03:35:57.200Z,11.16
2022-10-11T03:39:23.893Z,11.10
2022-10-11T03:42:50.582Z,11.01
2022-10-11T03:46:17.262Z,10.94
2022-10-11T03:49:44.115Z,10.86
2022-10-11T03:53:11.172Z,10.79
2022-10-11T03:56:37.852Z,10.72
2022-10-11T04:00:05.587Z,10.67
2022-10-11T04:03:32.304Z,10.60
2022-10-11T04:06:59.182Z,10.56
2022-10-11T04:10:25.811Z,10.53
2022-10-11T04:13:52.206Z,10.53
2022-10-11T04:17:19.182Z,10.54
2022-10-11T04:20:46.356Z,10.55
2022-10-11T04:24:14.174Z,10.55
2022-10-11T04:27:41.552Z,10.53
2022-10-11T04:31:08.654Z,10.51
2022-10-11T04:34:35.492Z,10.49
2022-10-11T04:38:02.143Z,10.42
2022-10-11T04:41:29.343Z,10.35
2022-10-11T04:44:56.352Z,10.26
2022-10-11T04:48:23.064Z,10.18
2022-10-11T04:51:49.744Z,10.11
2022-10-11T04:55:17.922Z,10.04
2022-10-11T04:58:48.354Z,10.00
2022-10-11T05:02:14.805Z,9.96
2022-10-11T05:05:41.291Z,9.94
2022-10-11T05:09:08.098Z,9.93
2022-10-11T05:12:36.727Z,9.93
2022-10-11T05:16:08.177Z,9.95
2022-10-11T05:19:37.136Z,9.98
2022-10-11T05:23:03.765Z,10.00
2022-10-11T05:26:31.143Z,10.03
2022-10-11T05:29:58.238Z,10.05
2022-10-11T05:33:25.880Z,10.04
2022-10-11T05:36:53.019Z,10.03
2022-10-11T05:40:19.977Z,10.01
2022-10-11T05:43:48.153Z,9.99
2022-10-11T05:47:16.134Z,9.96
2022-10-11T05:50:43.558Z,9.94
2022-10-11T05:54:10.509Z,9.90
2022-10-11T05:57:37.391Z,9.86
2022-10-11T06:01:04.169Z,9.86
2022-10-11T06:04:31.773Z,9.89
2022-10-11T06:07:59.644Z,9.95
2022-10-11T06:11:28.953Z,10.01
2022-10-11T06:14:56.061Z,10.07
2022-10-11T06:18:22.706Z,10.12
2022-10-11T06:21:49.299Z,10.21
2022-10-11T06:25:16.241Z,10.28
2022-10-11T06:28:43.837Z,10.34
2022-10-11T06:32:10.603Z,10.35
2022-10-11T06:35:38.023Z,10.37
2022-10-11T06:39:05.191Z,10.39
2022-10-11T06:42:31.949Z,10.41
2022-10-11T06:46:02.231Z,10.43
2022-10-11T06:49:30.117Z,10.43
2022-10-11T06:52:57.640Z,10.43
2022-10-11T06:56:24.760Z,10.45
2022-10-11T06:59:51.170Z,10.44
2022-10-11T07:03:18.067Z,10.45
2022-10-11T07:06:44.799Z,10.49
2022-10-11T07:10:12.943Z,10.53
2022-10-11T07:13:40.362Z,10.59
2022-10-11T07:17:07.315Z,10.66
2022-10-11T07:20:34.710Z,10.73
2022-10-11T07:24:13.876Z,10.81
2022-10-11T07:27:40.760Z,10.90
2022-10-11T07:31:09.847Z,10.97
2022-10-11T07:34:36.801Z,11.01
2022-10-11T07:38:04.280Z,11.07
2022-10-11T07:41:31.093Z,11.14
2022-10-11T07:44:57.584Z,11.19
2022-10-11T07:48:27.585Z,11.26
2022-10-11T07:51:54.951Z,11.35
2022-10-11T07:55:21.397Z,11.40
2022-10-11T07:58:50.792Z,11.42
2022-10-11T08:02:17.509Z,11.47
2022-10-11T08:05:43.851Z,11.52
2022-10-11T08:09:12.424Z,11.63
2022-10-11T08:12:39.425Z,11.75
2022-10-11T08:16:14.040Z,11.81
2022-10-11T08:19:40.775Z,11.89
2022-10-11T08:23:07.394Z,11.98
2022-10-11T08:26:36.186Z,12.07
2022-10-11T08:30:03.749Z,12.14
2022-10-11T08:33:31.283Z,12.21
2022-10-11T08:36:58.289Z,12.25
2022-10-11T08:40:25.786Z,12.29
2022-10-11T08:44:02.417Z,12.28
2022-10-11T08:47:32.865Z,12.35
2022-10-11T08:51:00.876Z,12.43
2022-10-11T08:54:43.228Z,12.47
2022-10-11T08:58:15.555Z,12.58
2022-10-11T09:01:51.993Z,12.72
2022-10-11T09:05:20.816Z,12.85
2022-10-11T09:09:04.115Z,12.98
2022-10-11T09:12:42.358Z,13.11
2022-10-11T09:16:20.801Z,13.16
2022-10-11T09:20:24.679Z,13.23
2022-10-11T09:24:09.796Z,13.40
2022-10-11T09:28:01.740Z,13.55
2022-10-11T09:31:29.392Z,13.67
2022-10-11T09:35:02.283Z,13.81
2022-10-11T09:38:44.687Z,13.94
2022-10-11T09:42:13.636Z,13.87
2022-10-11T09:45:49.184Z,13.87
2022-10-11T09:49:20.051Z,13.88
2022-10-11T09:53:00.015Z,13.94
2022-10-11T09:56:29.152Z,14.05
2022-10-11T10:00:06.040Z,14.15
2022-10-11T10:03:41.754Z,14.31
2022-10-11T10:07:16.781Z,14.48
2022-10-11T10:10:46.019Z,14.53
2022-10-11T10:14:24.409Z,14.55
2022-10-11T10:17:54.466Z,14.45
2022-10-11T10:21:29.214Z,14.38
2022-10-11T10:24:57.446Z,14.47
2022-10-11T10:28:28.322Z,14.55
2022-10-11T10:32:14.626Z,14.61
2022-10-11T10:35:48.227Z,14.51
2022-10-11T10:39:25.643Z,14.41
2022-10-11T10:42:52.953Z,14.33
2022-10-11T10:46:35.335Z,14.38
2022-10-11T10:50:08.731Z,14.62
2022-10-11T10:53:40.726Z,14.94
2022-10-11T10:57:17.738Z,15.28
2022-10-11T11:00:50.168Z,15.53
2022-10-11T11:04:28.429Z,15.70
2022-10-11T11:08:02.802Z,15.60
2022-10-11T11:11:45.065Z,15.63
2022-10-11T11:15:19.761Z,15.52
2022-10-11T11:18:56.902Z,15.42
2022-10-11T11:22:33.466Z,15.53
2022-10-11T11:26:10.903Z,15.65
2022-10-11T11:29:54.505Z,15.66
2022-10-11T11:33:36.008Z,15.92
2022-10-11T11:37:05.255Z,16.15
2022-10-11T11:40:37.401Z,16.33
2022-10-11T11:44:11.128Z,16.51
2022-10-11T11:47:43.337Z,16.65
2022-10-11T11:51:17.964Z,16.74
2022-10-11T11:54:52.235Z,16.66
2022-10-11T11:58:30.768Z,16.39
2022-10-11T12:02:18.181Z,16.19
2022-10-11T12:06:33.584Z,16.11
2022-10-11T12:10:25.149Z,15.99
2022-10-11T12:13:55.538Z,15.81
2022-10-11T12:17:24.761Z,15.82
2022-10-11T12:21:06.198Z,15.95
2022-10-11T12:24:59.647Z,15.86
2022-10-11T12:29:12.175Z,15.89
2022-10-11T12:32:53.189Z,15.93
2022-10-11T12:36:42.301Z,15.98
2022-10-11T12:40:42.084Z,16.26
2022-10-11T12:44:23.820Z,16.61
2022-10-11T12:47:54.628Z,16.90
2022-10-11T12:51:41.550Z,17.10
2022-10-11T12:55:27.257Z,17.27
2022-10-11T12:59:05.285Z,17.52
2022-10-11T13:02:40.013Z,17.75
2022-10-11T13:06:17.999Z,17.89
2022-10-11T13:09:49.090Z,18.06
2022-10-11T13:13:22.869Z,18.15
2022-10-11T13:16:52.787Z,18.20
2022-10-11T13:20:25.474Z,18.26
2022-10-11T13:23:55.436Z,18.37
2022-10-11T13:27:26.842Z,18.47
2022-10-11T13:30:57.630Z,18.52
2022-10-11T13:34:24.944Z,18.58
2022-10-11T13:37:54.471Z,18.62
2022-10-11T13:41:31.905Z,18.52
2022-10-11T13:45:01.476Z,18.44
2022-10-11T13:48:31.915Z,18.37
2022-10-11T13:52:04.440Z,18.40
2022-10-11T13:55:37.224Z,18.44
2022-10-11T13:59:05.653Z,18.43
2022-10-11T14:02:35.844Z,18.30
2022-10-11T14:06:05.238Z,18.08
2022-10-11T14:09:35.934Z,17.87
2022-10-11T14:13:24.853Z,17.64
2022-10-11T14:17:13.417Z,17.38
2022-10-11T14:20:44.866Z,17.09
2022-10-11T14:24:12.336Z,16.84
2022-10-11T14:27:40.064Z,16.64
2022-10-11T14:31:09.384Z,16.44
2022-10-11T14:34:39.520Z,16.26
2022-10-11T14:38:08.336Z,16.13
2022-10-11T14:41:40.181Z,15.97
2022-10-11T14:45:09.395Z,15.80
2022-10-11T14:48:54.530Z,15.65
2022-10-11T14:52:22.959Z,15.50
2022-10-11T14:55:49.572Z,15.39
2022-10-11T14:59:18.779Z,15.28
2022-10-11T15:02:45.334Z,15.16
2022-10-11T15:06:19.566Z,15.04
2022-10-11T15:09:47.311Z,14.93
2022-10-11T15:13:15.052Z,14.82
2022-10-11T15:16:42.827Z,14.69
2022-10-11T15:20:18.723Z,14.57
2022-10-11T15:23:45.578Z,14.48
2022-10-11T15:27:15.282Z,14.37
2022-10-11T15:30:43.683Z,14.27
2022-10-11T15:34:11.541Z,14.16
2022-10-11T15:37:38.422Z,14.04
2022-10-11T15:41:06.361Z,13.93
2022-10-11T15:44:33.500Z,13.81
2022-10-11T15:48:03.198Z,13.68
2022-10-11T15:51:31.394Z,13.56
2022-10-11T15:54:59.334Z,13.45
2022-10-11T15:58:29.535Z,13.34
2022-10-11T16:01:59.393Z,13.23
2022-10-11T16:05:31.343Z,13.12
2022-10-11T16:08:58.289Z,13.01
2022-10-11T16:12:25.085Z,12.88
2022-10-11T16:15:51.719Z,12.76
2022-10-11T16:19:18.459Z,12.63
2022-10-11T16:22:46.027Z,12.51
2022-10-11T16:26:18.985Z,12.37
2022-10-11T16:29:49.769Z,12.25
2022-10-11T16:33:21.801Z,12.12
2022-10-11T16:36:48.615Z,12.00
2022-10-11T16:40:17.850Z,11.88
2022-10-11T16:43:46.855Z,11.75
2022-10-11T16:47:16.926Z,11.62
2022-10-11T16:50:43.867Z,11.52
2022-10-11T16:54:11.395Z,11.40
2022-10-11T16:57:38.682Z,11.30
2022-10-11T17:01:08.844Z,11.18
2022-10-11T17:04:36.657Z,11.07
2022-10-11T17:08:06.928Z,10.97
2022-10-11T17:11:34.347Z,10.86
2022-10-11T17:15:01.793Z,10.75
2022-10-11T17:18:29.939Z,10.66
2022-10-11T17:21:57.786Z,10.59
2022-10-11T17:25:27.164Z,10.52
2022-10-11T17:28:56.791Z,10.45
2022-10-11T17:32:24.155Z,10.39
2022-10-11T17:35:51.223Z,10.36
2022-10-11T17:39:20.583Z,10.28
2022-10-11T17:42:48.124Z,10.24
2022-10-11T17:46:17.578Z,10.20
2022-10-11T17:49:46.127Z,10.17
2022-10-11T17:53:13.328Z,10.11
2022-10-11T17:56:40.692Z,10.03
2022-10-11T18:00:11.737Z,9.95
2022-10-11T18:03:39.162Z,9.85
2022-10-11T18:07:07.012Z,9.76
2022-10-11T18:10:37.236Z,9.66
2022-10-11T18:14:12.583Z,9.57
2022-10-11T18:17:42.094Z,9.48
2022-10-11T18:21:10.558Z,9.40
2022-10-11T18:24:39.496Z,9.33
2022-10-11T18:28:09.646Z,9.26
2022-10-11T18:31:39.574Z,9.18
2022-10-11T18:35:15.633Z,9.10
2022-10-11T18:38:49.636Z,9.02
2022-10-11T18:42:21.024Z,8.95
2022-10-11T18:45:52.816Z,8.89
2022-10-11T18:49:25.622Z,8.85
2022-10-11T18:52:56.795Z,8.84
2022-10-11T18:56:31.758Z,8.81
2022-10-11T19:00:01.368Z,8.80
2022-10-11T19:03:35.598Z,8.81
2022-10-11T19:07:03.926Z,8.77
2022-10-11T19:10:42.029Z,8.76
2022-10-11T19:14:16.357Z,8.71
2022-10-11T19:17:49.193Z,8.63
2022-10-11T19:21:20.011Z,8.57
2022-10-11T19:24:47.248Z,8.48
2022-10-11T19:28:15.919Z,8.40
2022-10-11T19:31:48.128Z,8.33
2022-10-11T19:35:20.161Z,8.24
2022-10-11T19:39:01.002Z,8.16
2022-10-11T19:42:30.175Z,8.07
2022-10-11T19:46:08.566Z,7.99
2022-10-11T19:49:37.790Z,7.92
2022-10-11T19:53:06.444Z,7.85
2022-10-11T19:56:38.571Z,7.80
2022-10-11T20:00:09.507Z,7.76
2022-10-11T20:03:38.197Z,7.74
2022-10-11T20:07:09.987Z,7.74
2022-10-11T20:10:38.493Z,7.75
2022-10-11T20:14:09.320Z,7.76
2022-10-11T20:17:52.457Z,7.76
2022-10-11T20:21:23.281Z,7.74
2022-10-11T20:24:50.038Z,7.72
2022-10-11T20:28:19.734Z,7.70
2022-10-11T20:31:48.233Z,7.67
2022-10-11T20:35:15.162Z,7.60
2022-10-11T20:38:43.823Z,7.56
2022-10-11T20:42:12.756Z,7.46
2022-10-11T20:45:40.460Z,7.44
2022-10-11T20:49:09.972Z,7.38
2022-10-11T20:52:37.941Z,7.31
2022-10-11T20:56:05.444Z,7.24
2022-10-11T20:59:32.247Z,7.19
2022-10-11T21:02:59.120Z,7.13
2022-10-11T21:06:29.713Z,7.10
2022-10-11T21:09:57.703Z,7.09
2022-10-11T21:13:25.486Z,7.08
2022-10-11T21:16:52.133Z,7.08
2022-10-11T21:20:19.165Z,7.09
2022-10-11T21:23:46.005Z,7.12
2022-10-11T21:27:14.337Z,7.12
2022-10-11T21:30:41.787Z,7.12
2022-10-11T21:34:09.148Z,7.10
2022-10-11T21:37:37.332Z,7.06
2022-10-11T21:41:05.318Z,7.01
2022-10-11T21:44:32.981Z,6.96
2022-10-11T21:48:01.258Z,6.91
2022-10-11T21:51:32.166Z,6.89
2022-10-11T21:54:59.232Z,6.82
2022-10-11T21:58:37.837Z,6.76
2022-10-11T22:06:29.761Z,6.62
2022-10-11T22:09:58.431Z,6.57
2022-10-11T22:13:27.137Z,6.54
2022-10-11T22:16:53.859Z,6.51
2022-10-11T22:20:23.504Z,6.48
2022-10-11T22:23:56.244Z,6.47
2022-10-11T22:27:22.954Z,6.48
2022-10-11T22:30:49.893Z,6.51
2022-10-11T22:34:18.075Z,6.54
2022-10-11T22:37:48.065Z,6.57
2022-10-11T22:41:18.091Z,6.56
2022-10-11T22:44:45.127Z,6.55
2022-10-11T22:48:14.240Z,6.57
2022-10-11T22:51:41.245Z,6.56
2022-10-11T22:55:08.763Z,6.54
2022-10-11T22:58:37.430Z,6.49
2022-10-11T23:02:04.242Z,6.44
2022-10-11T23:05:32.483Z,6.38
2022-10-11T23:08:59.995Z,6.33
2022-10-11T23:12:26.902Z,6.27
2022-10-11T23:15:53.799Z,6.22
2022-10-11T23:19:20.940Z,6.17
2022-10-11T23:22:47.353Z,6.11
2022-10-11T23:26:17.027Z,6.06
2022-10-11T23:29:43.543Z,6.03
2022-10-11T23:33:10.447Z,6.02
2022-10-11T23:36:37.652Z,6.02
2022-10-11T23:40:05.177Z,6.03
2022-10-11T23:43:34.698Z,6.06
2022-10-11T23:47:01.608Z,6.08
2022-10-11T23:50:31.241Z,6.11
2022-10-11T23:53:57.857Z,6.12
2022-10-11T23:57:25.229Z,6.12
